createdAt,value
2023-03-26T00:02:09.076Z,12.47
2023-03-26T00:04:37.396Z,12.60
2023-03-26T00:07:05.912Z,12.98
2023-03-26T00:09:34.149Z,13.04
2023-03-26T00:12:03.506Z,12.94
2023-03-26T00:14:35.634Z,12.76
2023-03-26T00:17:04.490Z,12.61
2023-03-26T00:19:34.052Z,12.46
2023-03-26T00:22:03.834Z,12.31
2023-03-26T00:24:32.490Z,12.50
2023-03-26T00:27:04.464Z,12.91
2023-03-26T00:29:37.336Z,13.10
2023-03-26T00:32:06.320Z,13.04
2023-03-26T00:34:35.404Z,12.95
2023-03-26T00:37:04.351Z,12.84
2023-03-26T00:39:35.223Z,12.70
2023-03-26T00:42:07.139Z,12.93
2023-03-26T00:44:35.914Z,13.21
2023-03-26T00:47:04.374Z,13.33
2023-03-26T00:49:33.265Z,13.27
2023-03-26T00:52:03.469Z,13.09
2023-03-26T00:54:32.878Z,12.92
2023-03-26T00:57:01.973Z,12.76
2023-03-26T00:59:32.138Z,12.87
2023-03-26T01:02:00.854Z,13.18
2023-03-26T01:04:34.784Z,13.32
2023-03-26T01:07:11.552Z,13.20
2023-03-26T01:09:45.210Z,13.08
2023-03-26T01:12:22.482Z,12.83
2023-03-26T01:14:53.611Z,12.69
2023-03-26T01:17:24.419Z,12.56
2023-03-26T01:19:56.530Z,12.71
2023-03-26T01:22:27.320Z,13.09
2023-03-26T01:24:56.951Z,13.26
2023-03-26T01:27:39.113Z,13.18
2023-03-26T01:30:25.479Z,12.99
2023-03-26T01:33:20.553Z,12.81
2023-03-26T01:36:24.893Z,12.61
2023-03-26T01:39:18.786Z,12.47
2023-03-26T01:42:36.404Z,12.98
2023-03-26T01:45:15.672Z,13.30
2023-03-26T01:47:46.597Z,13.30
2023-03-26T01:50:15.490Z,13.26
2023-03-26T01:52:44.308Z,13.06
2023-03-26T01:55:14.689Z,12.83
2023-03-26T01:57:53.331Z,12.57
2023-03-26T02:00:39.237Z,12.39
2023-03-26T02:03:17.782Z,12.66
2023-03-26T02:05:56.704Z,12.99
2023-03-26T02:08:38.208Z,12.89
2023-03-26T02:11:11.881Z,12.67
2023-03-26T02:13:43.801Z,12.38
2023-03-26T02:16:16.587Z,12.16
2023-03-26T02:18:51.597Z,11.93
2023-03-26T02:21:21.869Z,12.14
2023-03-26T02:23:57.997Z,12.38
2023-03-26T02:26:26.560Z,12.47
2023-03-26T02:29:14.468Z,12.11
2023-03-26T02:31:49.720Z,11.73
2023-03-26T02:34:18.748Z,11.44
2023-03-26T02:36:51.647Z,11.15
2023-03-26T02:39:21.015Z,10.92
2023-03-26T02:42:03.625Z,11.24
2023-03-26T02:44:34.474Z,11.74
2023-03-26T02:47:02.851Z,11.58
2023-03-26T02:49:44.446Z,11.39
2023-03-26T02:52:18.743Z,11.14
2023-03-26T02:54:48.584Z,10.88
2023-03-26T02:57:22.975Z,10.67
2023-03-26T03:00:14.180Z,10.52
2023-03-26T03:02:53.092Z,10.77
2023-03-26T03:05:47.368Z,11.33
2023-03-26T03:08:46.292Z,11.22
2023-03-26T03:11:32.999Z,11.05
2023-03-26T03:14:01.382Z,10.77
2023-03-26T03:16:31.348Z,10.54
2023-03-26T03:19:06.455Z,10.38
2023-03-26T03:21:40.456Z,10.22
2023-03-26T03:24:11.763Z,10.45
2023-03-26T03:26:47.888Z,10.97
2023-03-26T03:29:36.444Z,11.02
2023-03-26T03:32:24.768Z,10.82
2023-03-26T03:34:56.671Z,10.62
2023-03-26T03:37:27.244Z,10.41
2023-03-26T03:39:56.681Z,10.19
2023-03-26T03:42:28.101Z,10.00
2023-03-26T03:44:58.763Z,10.15
2023-03-26T03:48:09.395Z,10.70
2023-03-26T03:50:42.953Z,10.65
2023-03-26T03:53:26.389Z,10.44
2023-03-26T03:56:17.637Z,10.19
2023-03-26T03:59:05.368Z,10.00
2023-03-26T04:01:35.322Z,9.80
2023-03-26T04:04:09.862Z,9.61
2023-03-26T04:06:49.237Z,9.82
2023-03-26T04:09:17.936Z,10.22
2023-03-26T04:11:51.205Z,10.29
2023-03-26T04:14:48.277Z,10.17
2023-03-26T04:17:22.068Z,9.93
2023-03-26T04:19:55.170Z,9.74
2023-03-26T04:22:36.604Z,9.61
2023-03-26T04:25:11.224Z,9.41
2023-03-26T04:27:46.432Z,9.37
2023-03-26T04:30:47.241Z,9.74
2023-03-26T04:33:55.412Z,10.23
2023-03-26T04:36:27.664Z,10.43
2023-03-26T04:39:02.488Z,10.45
2023-03-26T04:41:52.047Z,10.43
2023-03-26T04:44:25.381Z,10.34
2023-03-26T04:47:01.759Z,10.18
2023-03-26T04:49:37.129Z,10.00
2023-03-26T04:52:07.722Z,9.87
2023-03-26T04:54:54.824Z,10.03
2023-03-26T04:57:39.555Z,10.35
2023-03-26T05:00:20.542Z,10.55
2023-03-26T05:02:56.343Z,10.43
2023-03-26T05:05:28.395Z,10.30
2023-03-26T05:07:58.868Z,10.15
2023-03-26T05:10:28.633Z,10.07
2023-03-26T05:13:04.641Z,10.00
2023-03-26T05:15:39.758Z,9.92
2023-03-26T05:18:33.619Z,9.85
2023-03-26T05:21:02.938Z,10.16
2023-03-26T05:23:31.796Z,10.68
2023-03-26T05:26:14.981Z,10.96
2023-03-26T05:28:43.599Z,11.10
2023-03-26T05:31:35.185Z,11.24
2023-03-26T05:34:04.027Z,11.40
2023-03-26T05:36:35.021Z,11.42
2023-03-26T05:39:30.101Z,11.32
2023-03-26T05:42:01.386Z,11.22
2023-03-26T05:44:37.818Z,11.04
2023-03-26T05:47:10.913Z,10.87
2023-03-26T05:49:39.235Z,10.78
2023-03-26T05:52:08.486Z,10.98
2023-03-26T05:54:55.470Z,11.37
2023-03-26T05:57:43.056Z,11.57
2023-03-26T06:00:43.236Z,11.61
2023-03-26T06:03:14.931Z,11.57
2023-03-26T06:06:10.117Z,11.69
2023-03-26T06:09:01.846Z,11.95
2023-03-26T06:11:34.787Z,12.47
2023-03-26T06:14:09.219Z,12.67
2023-03-26T06:16:40.489Z,12.67
2023-03-26T06:19:23.147Z,12.66
2023-03-26T06:22:06.115Z,12.60
2023-03-26T06:24:53.005Z,12.60
2023-03-26T06:27:47.412Z,13.03
2023-03-26T06:30:46.310Z,13.62
2023-03-26T06:33:24.647Z,13.71
2023-03-26T06:35:53.576Z,13.68
2023-03-26T06:38:24.715Z,13.40
2023-03-26T06:40:53.548Z,13.17
2023-03-26T06:43:24.878Z,12.95
2023-03-26T06:46:19.043Z,12.70
2023-03-26T06:49:06.683Z,12.47
2023-03-26T06:51:41.671Z,12.40
2023-03-26T06:54:31.772Z,12.39
2023-03-26T06:57:11.467Z,12.36
2023-03-26T07:00:15.612Z,12.31
2023-03-26T07:03:04.495Z,12.32
2023-03-26T07:05:52.036Z,12.31
2023-03-26T07:08:39.807Z,12.30
2023-03-26T07:11:40.522Z,12.30
2023-03-26T07:14:30.683Z,12.30
2023-03-26T07:17:11.823Z,12.37
2023-03-26T07:20:08.161Z,12.46
2023-03-26T07:22:37.451Z,12.52
2023-03-26T07:25:07.317Z,12.62
2023-03-26T07:28:20.653Z,12.75
2023-03-26T07:31:36.332Z,12.86
2023-03-26T07:34:44.681Z,12.92
2023-03-26T07:37:44.516Z,13.03
2023-03-26T07:40:44.322Z,13.03
2023-03-26T07:43:41.140Z,13.11
2023-03-26T07:46:37.266Z,13.30
2023-03-26T07:49:32.994Z,13.45
2023-03-26T07:52:20.819Z,13.61
2023-03-26T07:55:01.311Z,13.73
2023-03-26T07:57:39.170Z,13.64
2023-03-26T08:00:46.709Z,13.44
2023-03-26T08:03:30.501Z,13.41
2023-03-26T08:06:33.922Z,13.37
2023-03-26T08:09:23.944Z,13.32
2023-03-26T08:12:27.210Z,13.35
2023-03-26T08:15:12.362Z,13.55
2023-03-26T08:17:57.157Z,13.81
2023-03-26T08:20:31.325Z,14.03
2023-03-26T08:23:07.841Z,14.20
2023-03-26T08:26:02.707Z,14.34
2023-03-26T08:28:46.123Z,14.30
2023-03-26T08:31:17.976Z,14.18
2023-03-26T08:33:46.532Z,14.14
2023-03-26T08:36:14.693Z,14.22
2023-03-26T08:38:44.439Z,14.35
2023-03-26T08:41:15.313Z,14.38
2023-03-26T08:44:16.597Z,14.38
2023-03-26T08:46:49.030Z,14.28
2023-03-26T08:49:39.180Z,14.29
2023-03-26T08:52:25.849Z,14.37
2023-03-26T08:55:15.657Z,14.43
2023-03-26T08:57:56.322Z,14.47
2023-03-26T09:00:37.269Z,14.50
2023-03-26T09:03:13.722Z,14.57
